Charlotte, NC (28211)

6:36 PM EST on March 03, 2015 (GMT -0500)
Cloisters | Change Station
CLOSE
Current Station
Personal Weather Station
Location: Charlotte, NC
Elevation: 676 ft
Nearby Weather Stations

Elev 676 ft 35.16 °N, 80.80 °W | Updated 9 minutes ago

Overcast
Overcast
40.8 °F
Feels Like 41 °F
N
0.0
Wind Variable Wind from NW
Gusts 0.0 mph

Today
High -- | Low -- °F
--% Chance of Precip.
Yesterday
High -- | Low -- °F
Precip. -- in
6:50 AM 6:20 PM
Waxing Gibbous, 97% visible
Pressure 30.17 in
Visibility 7.0 miles
Clouds Overcast 900 ft
Windchill 41 °F
Dew Point 37 °F
Humidity 87%
Rainfall 0.00 in
Snow Depth Not available.
UV 0 out of 12
Pollen 3.20 out of 12
Air Quality Not available.
Flu Activity Not available.
METAR KCLT 032252Z 17004KT 7SM OVC009 06/03 A3016 RMK AO2 SLP215 T00560028

More Conditions Fewer Conditions

Pressure 30.17 in
Visibility 7.0 miles
Clouds Overcast 900 ft
Windchill 41 °F
Dew Point 37 °F
Humidity 87%
Rainfall 0.00 in
Snow Depth Not available.
UV 0 out of 12
Pollen 3.20 out of 12
Air Quality Not available.
Flu Activity Not available.
METAR KCLT 032252Z 17004KT 7SM OVC009 06/03 A3016 RMK AO2 SLP215 T00560028

More Conditions Fewer Conditions

10-Day Weather Forecast

Almanac

Astronomy

Mar. 03, 2015 Rise Set
Actual Time
Civil Twilight
Nautical Twilight
Astronomical Twilight
Moon
Length of Visible Light
Length of Day
Tomorrow will be .
, % of the Moon is Illuminated

Today's Extremes

State Highs State Lows

Community

WunderPhotos

Upload Photos

1,802,305 photos uploaded!

WunderBlogs® & News

Nearby

Air Quality

  Air Quality AQ Index Pollutant
Not available.

Snow Depth

Station Depth Elevation

Earthquake Activity

City Distance Mag. Time & Date
Minimum magnitude displayed is 2.5.

Coastal Water Temperatures

Place Temperature

Nearby Weather Stations